Time;durP1;ratioP1;P1;durP2;ratioP2;P2;SDS_P1;SDS_P2;PMS_P1;PMS_P2;Temp;Humidity;BMP_temperature;BMP_pressure;BME280_temperature;BME280_humidity;BME280_pressure;Samples;Min_cycle;Max_cycle;Signal;HPM_P1;HPM_P2
2022/04/28 00:00:40;;;;;;;2.55;1.35;;;;;;;3.28;63.99;100656.06;1680895;83;21656;-61
2022/04/28 00:03:08;;;;;;;1.95;1.30;;;;;;;3.17;64.05;100639.31;1680025;83;21093;-61
2022/04/28 00:05:35;;;;;;;2.67;1.42;;;;;;;3.22;63.87;100656.94;1689295;83;21007;-61
2022/04/28 00:08:03;;;;;;;2.20;1.37;;;;;;;3.21;63.88;100659.07;1702367;82;20998;-62
2022/04/28 00:10:30;;;;;;;3.50;1.25;;;;;;;3.20;63.87;100662.53;1705563;82;22105;-61
2022/04/28 00:12:57;;;;;;;3.55;1.37;;;;;;;3.18;63.91;100656.50;1696716;83;20926;-61
2022/04/28 00:15:24;;;;;;;3.30;1.43;;;;;;;3.15;63.98;100656.52;1701343;82;21053;-61
2022/04/28 00:17:51;;;;;;;3.35;1.50;;;;;;;3.12;64.05;100657.37;1696563;83;20943;-61
2022/04/28 00:20:18;;;;;;;3.12;1.20;;;;;;;3.09;64.10;100657.81;1689350;84;21038;-61
2022/04/28 00:22:44;;;;;;;5.67;1.40;;;;;;;3.05;64.26;100657.37;1695097;84;21134;-61
2022/04/28 00:25:11;;;;;;;2.52;1.40;;;;;;;3.01;64.31;100653.95;1697691;83;21028;-61
2022/04/28 00:27:38;;;;;;;2.10;1.37;;;;;;;2.98;64.36;100650.52;1686038;83;21438;-61
2022/04/28 00:30:07;;;;;;;3.70;1.30;;;;;;;2.96;64.48;100652.24;1682163;83;21545;-61
2022/04/28 00:32:34;;;;;;;11.83;1.90;;;;;;;2.95;64.45;100655.69;1688289;83;21071;-61
2022/04/28 00:35:02;;;;;;;2.35;1.42;;;;;;;2.94;64.65;100654.84;1682134;83;21055;-61
2022/04/28 00:37:28;;;;;;;;;;;;;;;2.93;64.71;100657.41;1686466;83;21099;-61
2022/04/28 00:39:55;;;;;;;2.30;1.17;;;;;;;2.93;64.88;100659.98;1686304;83;21496;-61
2022/04/28 00:42:22;;;;;;;3.20;1.47;;;;;;;2.93;64.98;100659.98;1679217;83;21068;-61
2022/04/28 00:44:48;;;;;;;3.80;1.13;;;;;;;2.91;64.95;100660.86;1687456;83;21561;-61
2022/04/28 00:47:15;;;;;;;2.87;1.40;;;;;;;2.94;65.11;100668.14;1686201;83;21598;-62
2022/04/28 00:52:29;;;;;;;2.55;1.30;;;;;;;2.89;65.39;100666.88;1682427;83;21528;-61
2022/04/28 00:54:57;;;;;;;1.98;1.42;;;;;;;2.86;65.55;100670.31;1690829;83;20997;-61
2022/04/28 00:57:24;;;;;;;;;;;;;;;2.83;65.70;100672.90;1706905;82;21543;-61
2022/04/28 00:59:52;;;;;;;4.92;1.37;;;;;;;2.84;65.91;100677.19;1697606;82;20507;-61
2022/04/28 01:02:19;;;;;;;2.17;1.50;;;;;;;2.83;65.90;100671.61;1699954;82;20985;-61
2022/04/28 01:04:49;;;;;;;;;;;;;;;2.85;66.01;100673.73;1705863;82;21533;-61
2022/04/28 01:07:17;;;;;;;2.05;0.88;;;;;;;2.88;66.15;100671.15;1700370;82;20121;-61
2022/04/28 01:09:44;;;;;;;3.15;1.00;;;;;;;2.87;66.02;100668.59;1698615;82;21068;-61
2022/04/28 01:12:14;;;;;;;1.72;1.20;;;;;;;2.87;66.15;100666.86;1702916;82;21057;-61
2022/04/28 01:14:45;;;;;;;3.58;1.50;;;;;;;2.84;66.23;100655.27;1700540;82;21028;-62
2022/04/28 01:17:13;;;;;;;6.03;1.40;;;;;;;2.82;66.30;100654.83;1696511;83;21259;-61
2022/04/28 01:19:40;;;;;;;3.12;1.30;;;;;;;2.78;66.37;100656.56;1692012;83;21090;-61
2022/04/28 01:22:08;;;;;;;1.95;1.15;;;;;;;2.77;66.52;100662.56;1682678;83;20913;-62
2022/04/28 01:24:36;;;;;;;;;;;;;;;2.79;66.55;100660.00;1686145;83;21059;-61
2022/04/28 01:27:05;;;;;;;3.17;1.30;;;;;;;2.77;66.67;100659.98;1684774;83;20200;-61
2022/04/28 01:29:33;;;;;;;6.95;1.40;;;;;;;2.76;66.55;100664.72;1684796;83;21143;-61
2022/04/28 01:32:03;;;;;;;3.45;1.70;;;;;;;2.79;66.45;100660.84;1688571;83;20992;-61
2022/04/28 01:34:31;;;;;;;3.22;1.05;;;;;;;2.81;66.44;100664.30;1688541;83;21068;-61
2022/04/28 01:36:57;;;;;;;2.92;1.02;;;;;;;2.83;66.45;100657.42;1683315;83;21522;-61
2022/04/28 01:39:25;;;;;;;2.05;1.15;;;;;;;2.86;66.57;100661.72;1688357;83;21677;-61
2022/04/28 01:41:51;;;;;;;4.12;1.22;;;;;;;2.87;66.65;100656.55;1685607;83;22662;-61
2022/04/28 01:44:18;;;;;;;6.00;1.23;;;;;;;2.90;66.58;100660.41;1683418;83;21073;-61
2022/04/28 01:46:45;;;;;;;2.77;1.10;;;;;;;2.93;66.57;100666.44;1684400;83;20969;-61
2022/04/28 01:49:12;;;;;;;3.37;1.15;;;;;;;2.96;66.69;100661.27;1689367;83;21017;-61
2022/04/28 01:56:26;;;;;;;1.75;1.07;;;;;;;3.02;66.83;100655.66;1837027;76;23401;-60
2022/04/28 01:58:53;;;;;;;3.45;1.10;;;;;;;2.97;66.79;100653.95;1808366;78;20990;-61
2022/04/28 02:01:19;;;;;;;4.97;1.20;;;;;;;2.95;66.92;100653.97;1814702;77;22041;-61
2022/04/28 02:03:46;;;;;;;2.57;1.40;;;;;;;2.96;66.99;100645.80;1813174;78;20887;-61
2022/04/28 02:06:13;;;;;;;2.72;1.12;;;;;;;2.94;67.04;100646.22;1806701;78;20935;-61
2022/04/28 02:11:15;;;;;;;2.22;1.00;;;;;;;2.98;67.24;100654.39;1862929;74;22673;-61
2022/04/28 02:13:42;;;;;;;5.03;1.57;;;;;;;2.97;67.23;100656.53;1826385;77;20985;-61
2022/04/28 02:16:10;;;;;;;3.30;1.30;;;;;;;2.96;67.21;100657.40;1832321;76;21063;-61
2022/04/28 02:18:38;;;;;;;3.95;1.10;;;;;;;2.91;67.19;100658.28;1836338;77;21025;-61
2022/04/28 02:21:04;;;;;;;2.15;0.80;;;;;;;2.84;67.18;100666.87;1829299;77;21559;-61
2022/04/28 02:23:31;;;;;;;2.07;1.00;;;;;;;2.83;67.25;100664.28;1840373;77;21471;-61
2022/04/28 02:25:58;;;;;;;3.13;1.03;;;;;;;2.84;67.25;100655.27;1834139;77;20999;-61
2022/04/28 02:28:26;;;;;;;2.90;1.17;;;;;;;2.89;67.36;100653.98;1832054;76;21617;-61
2022/04/28 02:30:52;;;;;;;;;;;;;;;2.86;67.26;100660.00;1836607;77;21764;-62
2022/04/28 02:33:19;;;;;;;1.53;0.97;;;;;;;2.83;67.35;100656.13;1835708;77;20524;-61
2022/04/28 02:35:46;;;;;;;6.35;1.47;;;;;;;2.78;67.37;100664.30;1831869;76;21118;-61
2022/04/28 02:38:12;;;;;;;3.43;1.20;;;;;;;2.64;67.34;100666.02;1830936;77;20921;-61
2022/04/28 02:40:40;;;;;;;1.33;0.87;;;;;;;2.51;67.38;100669.45;1839036;76;21399;-61
2022/04/28 02:43:06;;;;;;;2.27;1.07;;;;;;;2.41;67.49;100668.59;1834800;76;23793;-61
2022/04/28 02:45:38;;;;;;;5.72;2.22;;;;;;;2.32;67.57;100671.98;1833797;76;21462;-61
2022/04/28 02:48:08;;;;;;;5.75;2.27;;;;;;;2.27;68.19;100675.41;1837864;77;20948;-62
2022/04/28 02:50:35;;;;;;;5.85;3.00;;;;;;;2.24;68.06;100671.11;1836512;77;20945;-62
2022/04/28 02:53:02;;;;;;;9.13;2.47;;;;;;;2.19;67.96;100675.42;1830367;77;22242;-62
2022/04/28 02:55:29;;;;;;;7.62;2.20;;;;;;;2.15;67.99;100673.68;1836365;77;20964;-62
2022/04/28 02:57:56;;;;;;;4.67;2.10;;;;;;;2.11;68.00;100665.53;1826197;77;21021;-62
2022/04/28 03:00:23;;;;;;;3.17;1.70;;;;;;;2.12;68.05;100671.09;1831141;77;21044;-62
2022/04/28 03:02:49;;;;;;;5.22;2.42;;;;;;;2.10;68.17;100670.22;1835409;77;20990;-62
2022/04/28 03:05:16;;;;;;;7.73;1.80;;;;;;;2.09;68.14;100673.67;1837762;77;21071;-62
2022/04/28 03:10:52;;;;;;;4.72;1.98;;;;;;;2.10;68.28;100676.66;1837659;75;21387;-62
2022/04/28 03:13:22;;;;;;;4.55;1.77;;;;;;;2.10;68.36;100675.38;1831205;77;21080;-62
2022/04/28 03:15:54;;;;;;;5.92;2.20;;;;;;;2.10;68.39;100678.84;1839162;77;21019;-62
2022/04/28 03:18:21;;;;;;;6.75;2.92;;;;;;;2.09;68.48;100677.53;1839448;76;22336;-61
2022/04/28 03:20:47;;;;;;;6.33;2.60;;;;;;;2.00;68.43;100680.52;1837049;77;20955;-61
2022/04/28 03:23:15;;;;;;;5.37;2.42;;;;;;;1.95;68.58;100674.48;1838751;77;20983;-60
2022/04/28 03:25:42;;;;;;;4.08;2.08;;;;;;;1.93;68.70;100664.63;1833831;77;26546;-60
2022/04/28 03:28:09;;;;;;;3.77;2.13;;;;;;;1.93;68.70;100672.35;1841823;77;20959;-61
2022/04/28 03:30:36;;;;;;;3.42;1.92;;;;;;;1.88;68.72;100675.34;1840358;77;22379;-60
2022/04/28 03:33:03;;;;;;;7.70;2.58;;;;;;;1.85;68.78;100676.61;1841577;77;20991;-61
2022/04/28 03:35:29;;;;;;;4.72;1.95;;;;;;;1.84;68.86;100681.31;1835890;76;21567;-61
2022/04/28 03:37:59;;;;;;;5.85;2.47;;;;;;;1.88;68.97;100676.63;1830244;77;22250;-61
2022/04/28 03:40:25;;;;;;;5.12;2.45;;;;;;;1.91;69.10;100672.77;1830096;77;20979;-61
2022/04/28 03:42:57;;;;;;;5.70;2.52;;;;;;;1.97;69.17;100680.51;1826003;77;21920;-61
2022/04/28 03:45:28;;;;;;;5.08;2.62;;;;;;;1.96;69.10;100678.80;1831263;77;21007;-62
2022/04/28 03:47:53;;;;;;;3.40;2.08;;;;;;;1.96;69.21;100683.06;1830908;77;21562;-61
2022/04/28 03:50:19;;;;;;;6.75;2.50;;;;;;;2.06;69.34;100678.81;1831850;77;21585;-61
2022/04/28 03:52:46;;;;;;;3.90;2.13;;;;;;;2.12;69.43;100681.41;1835738;77;21174;-62
2022/04/28 03:55:13;;;;;;;3.90;2.37;;;;;;;2.19;69.42;100678.00;1834555;77;21601;-62
2022/04/28 03:57:42;;;;;;;3.62;1.30;;;;;;;2.23;69.43;100677.13;1830344;77;20972;-62
2022/04/28 04:00:10;;;;;;;5.70;1.57;;;;;;;2.30;69.39;100686.61;1831649;77;21542;-61
2022/04/28 04:02:37;;;;;;;4.25;2.02;;;;;;;2.42;69.42;100681.46;1833312;77;22339;-61
2022/04/28 04:05:05;;;;;;;5.47;1.85;;;;;;;2.54;69.46;100683.63;1830742;77;21709;-61
2022/04/28 04:07:38;;;;;;;3.65;1.90;;;;;;;2.68;69.59;100688.36;1829384;77;21906;-61
2022/04/28 04:10:07;;;;;;;5.17;1.85;;;;;;;2.85;69.66;100686.63;1830054;77;22269;-61
2022/04/28 04:12:34;;;;;;;4.08;1.40;;;;;;;3.01;69.67;100682.33;1828749;77;21032;-61
2022/04/28 04:15:01;;;;;;;4.58;1.65;;;;;;;3.10;69.50;100676.30;1828402;77;20980;-61
2022/04/28 04:17:28;;;;;;;4.65;1.65;;;;;;;3.19;69.48;100683.16;1833607;77;21020;-61
2022/04/28 04:19:56;;;;;;;2.70;1.40;;;;;;;3.27;69.35;100682.28;1825479;77;22286;-61
2022/04/28 04:22:23;;;;;;;4.20;1.62;;;;;;;3.33;69.40;100674.55;1829699;77;21176;-61
2022/04/28 04:24:50;;;;;;;1.85;1.40;;;;;;;3.47;69.52;100678.80;1822771;77;20907;-62
2022/04/28 04:27:17;;;;;;;2.80;1.53;;;;;;;3.86;70.04;100684.69;1831916;77;21450;-62
2022/04/28 04:29:44;;;;;;;3.00;1.40;;;;;;;5.11;70.55;100682.52;1836997;76;20985;-62
2022/04/28 04:32:24;;;;;;;3.07;1.40;;;;;;;6.49;70.15;100671.75;1832132;77;21045;-62
2022/04/28 04:34:50;;;;;;;2.42;1.07;;;;;;;7.98;69.57;100673.38;1821863;77;21107;-62
2022/04/28 04:37:17;;;;;;;6.67;1.95;;;;;;;9.27;68.89;100672.91;1822543;77;21001;-62
2022/04/28 04:39:44;;;;;;;6.87;3.20;;;;;;;10.32;68.00;100666.44;1825214;77;20987;-62
2022/04/28 04:42:12;;;;;;;19.37;3.27;;;;;;;11.15;67.39;100669.81;1837409;77;21597;-62
2022/04/28 04:44:39;;;;;;;8.45;3.55;;;;;;;11.91;67.04;100664.52;1839582;77;21898;-63
2022/04/28 04:47:06;;;;;;;9.45;2.62;;;;;;;12.51;66.44;100665.65;1839341;77;20953;-63
2022/04/28 04:49:32;;;;;;;;;;;;;;;13.03;66.07;100668.75;1840962;77;21064;-63
2022/04/28 04:52:01;;;;;;;11.18;2.55;;;;;;;13.36;65.72;100669.11;1835447;77;20139;-63
2022/04/28 04:54:29;;;;;;;8.85;2.55;;;;;;;13.63;65.76;100669.63;1835976;77;20952;-63
2022/04/28 04:57:16;;;;;;;6.20;2.33;;;;;;;14.08;65.52;100668.45;1750271;81;21526;-63
2022/04/28 04:59:44;;;;;;;9.48;2.45;;;;;;;14.75;64.92;100672.74;1748330;80;21016;-63
2022/04/28 05:02:12;;;;;;;3.45;1.82;;;;;;;15.06;64.20;100664.64;1750465;80;20942;-63
2022/04/28 05:04:38;;;;;;;5.47;1.60;;;;;;;15.40;64.47;100669.88;1745256;80;21499;-64
2022/04/28 05:07:06;;;;;;;9.65;2.15;;;;;;;15.84;64.77;100667.98;1746654;80;21028;-64
2022/04/28 05:09:32;;;;;;;5.47;2.00;;;;;;;16.44;64.82;100665.14;1745032;80;21905;-64
2022/04/28 05:11:59;;;;;;;;;;;;;;;17.03;64.44;100663.97;1749310;80;20962;-65
2022/04/28 05:14:26;;;;;;;3.27;1.80;;;;;;;17.16;62.12;100664.47;1749921;80;20161;-62
2022/04/28 05:16:57;;;;;;;3.27;1.42;;;;;;;17.07;62.42;100670.30;1746305;81;21001;-65
2022/04/28 05:19:26;;;;;;;5.33;1.60;;;;;;;17.12;61.57;100670.89;1744643;81;20965;-63
2022/04/28 05:21:52;;;;;;;3.02;1.40;;;;;;;17.56;63.02;100664.72;1749882;80;21933;-65
2022/04/28 05:24:21;;;;;;;1.98;1.30;;;;;;;17.74;59.26;100664.52;1748987;80;21026;-65
2022/04/28 05:26:48;;;;;;;2.02;1.00;;;;;;;17.56;59.48;100665.17;1749144;80;21068;-64
2022/04/28 05:29:16;;;;;;;3.25;1.22;;;;;;;16.91;57.47;100670.83;1741543;80;20965;-65
2022/04/28 05:31:43;;;;;;;2.52;1.30;;;;;;;16.03;56.15;100664.37;1742657;80;21185;-63
2022/04/28 05:34:09;;;;;;;;;;;;;;;15.39;56.44;100668.16;1744510;81;21099;-65
2022/04/28 05:36:37;;;;;;;;;;;;;;;15.15;53.59;100672.05;1746743;80;20100;-65
2022/04/28 05:39:05;;;;;;;6.42;2.65;;;;;;;14.39;54.61;100671.41;1733700;81;20201;-65
2022/04/28 05:41:34;;;;;;;7.92;3.33;;;;;;;14.17;57.29;100675.52;1750866;80;20964;-64
2022/04/28 05:46:47;;;;;;;5.35;2.52;;;;;;;14.38;57.82;100675.82;1748305;80;21165;-63
2022/04/28 05:49:14;;;;;;;4.20;1.90;;;;;;;15.20;55.61;100676.61;1748946;80;22281;-64
2022/04/28 05:51:40;;;;;;;;;;;;;;;15.13;56.14;100680.03;1749328;81;22456;-66
2022/04/28 05:54:07;;;;;;;2.75;1.70;;;;;;;15.39;56.07;100681.31;1747763;80;20106;-66
2022/04/28 05:56:34;;;;;;;;;;;;;;;15.51;56.04;100684.23;1733598;80;21001;-65
2022/04/28 05:59:01;;;;;;;2.62;1.10;;;;;;;15.63;54.17;100687.56;1715925;82;21138;-64
2022/04/28 06:01:29;;;;;;;3.58;1.50;;;;;;;15.16;54.71;100690.87;1717906;81;21563;-65
2022/04/28 06:04:01;;;;;;;5.33;1.40;;;;;;;15.00;54.38;100692.09;1719450;81;21258;-67
2022/04/28 06:06:26;;;;;;;2.20;1.10;;;;;;;15.04;54.51;100696.29;1718890;82;21063;-65
2022/04/28 06:08:53;;;;;;;3.00;1.40;;;;;;;15.26;54.30;100689.45;1719629;83;21593;-68
2022/04/28 06:11:19;;;;;;;;;;;;;;;15.04;53.89;100691.47;1718483;81;21889;-67
2022/04/28 06:13:46;;;;;;;;;;;;;;;15.33;54.03;100693.95;1717211;81;20179;-66
2022/04/28 06:16:13;;;;;;;2.80;1.02;;;;;;;15.33;53.21;100697.42;1717923;81;20092;-66
2022/04/28 06:18:39;;;;;;;;;;;;;;;15.50;54.55;100694.39;1721246;81;20976;-67
2022/04/28 06:21:07;;;;;;;4.08;1.37;;;;;;;15.77;52.14;100698.23;1717581;81;20104;-66
2022/04/28 06:23:33;;;;;;;3.15;1.60;;;;;;;15.70;53.83;100698.16;1714048;81;23130;-67
2022/04/28 06:26:01;;;;;;;;;;;;;;;15.97;53.12;100695.00;1723197;82;20914;-66
2022/04/28 06:28:28;;;;;;;2.95;1.60;;;;;;;15.84;50.86;100697.43;1716018;82;20465;-66
2022/04/28 06:30:56;;;;;;;4.35;1.22;;;;;;;15.59;52.07;100703.11;1714261;82;21035;-63
2022/04/28 06:33:23;;;;;;;3.02;1.40;;;;;;;15.66;51.86;100701.87;1714384;83;21582;-63
2022/04/28 06:35:50;;;;;;;1.32;1.07;;;;;;;15.36;48.76;100692.00;1685835;83;22318;-63
2022/04/28 06:38:18;;;;;;;5.53;1.30;;;;;;;14.80;49.59;100691.78;1671218;84;21065;-63
2022/04/28 06:40:45;;;;;;;2.35;1.50;;;;;;;14.50;50.23;100690.98;1662422;84;21017;-64
2022/04/28 06:43:12;;;;;;;2.40;1.00;;;;;;;14.32;49.82;100701.08;1659880;84;21109;-63
2022/04/28 06:46:11;;;;;;;1.07;0.80;;;;;;;13.83;48.59;100702.02;1644904;85;21034;-63
2022/04/28 06:48:08;;;;;;;3.85;0.80;;;;;;;13.61;49.79;100701.67;1663648;84;22010;-63
2022/04/28 06:50:35;;;;;;;3.47;0.90;;;;;;;13.52;49.45;100704.69;1673062;84;20978;-63
2022/04/28 06:53:02;;;;;;;1.82;1.05;;;;;;;13.38;49.54;100708.37;1661050;85;21323;-63
2022/04/28 06:55:29;;;;;;;3.17;0.90;;;;;;;13.26;48.65;100706.28;1662302;84;21100;-63
2022/04/28 06:57:57;;;;;;;2.30;1.00;;;;;;;13.42;49.90;100706.88;1708185;82;21569;-64
2022/04/28 07:00:24;;;;;;;1.25;0.72;;;;;;;13.93;49.54;100708.56;1651191;84;22664;-64
2022/04/28 07:02:52;;;;;;;2.98;0.80;;;;;;;13.93;48.37;100711.19;1687056;83;21614;-63
2022/04/28 07:05:19;;;;;;;5.08;1.45;;;;;;;13.51;47.59;100709.55;1687907;83;21010;-63
2022/04/28 07:07:46;;;;;;;6.75;1.15;;;;;;;13.39;47.68;100717.97;1686611;83;20978;-63
2022/04/28 07:10:13;;;;;;;1.70;0.72;;;;;;;13.73;48.13;100713.86;1685421;84;20954;-64
2022/04/28 07:12:41;;;;;;;;;;;;;;;13.64;47.26;100713.34;1690845;83;21121;-63
2022/04/28 07:15:09;;;;;;;5.22;1.20;;;;;;;13.17;47.35;100716.22;1695944;82;20090;-63
2022/04/28 07:17:36;;;;;;;4.00;1.20;;;;;;;13.08;47.67;100727.09;1695304;84;20974;-63
2022/04/28 07:20:03;;;;;;;1.10;0.82;;;;;;;12.94;47.62;100732.91;1701155;82;21207;-63
2022/04/28 07:22:30;;;;;;;2.17;0.85;;;;;;;12.26;46.41;100729.45;1697818;82;21012;-63
2022/04/28 07:24:57;;;;;;;1.72;0.80;;;;;;;11.90;47.47;100734.77;1696360;83;21581;-62
2022/04/28 07:27:23;;;;;;;4.58;0.88;;;;;;;11.94;47.86;100737.69;1695139;82;20923;-63
2022/04/28 07:29:50;;;;;;;1.62;0.80;;;;;;;11.80;47.44;100726.38;1697629;82;20953;-62
2022/04/28 07:32:17;;;;;;;2.72;1.00;;;;;;;11.70;47.67;100733.69;1696502;83;20903;-61
2022/04/28 07:34:43;;;;;;;1.72;0.90;;;;;;;11.56;47.51;100737.25;1700451;82;21041;-62
2022/04/28 07:37:15;;;;;;;3.15;1.05;;;;;;;11.27;46.72;100736.50;1708963;82;21065;-61
2022/04/28 07:39:42;;;;;;;4.22;1.35;;;;;;;10.98;46.95;100735.72;1708990;82;21059;-61
2022/04/28 07:42:08;;;;;;;2.12;1.12;;;;;;;10.81;46.88;100724.97;1712620;82;20901;-61
2022/04/28 07:44:36;;;;;;;1.25;0.65;;;;;;;10.56;45.17;100737.06;1711590;82;20956;-61
2022/04/28 07:47:03;;;;;;;;;;;;;;;10.37;46.84;100742.87;1706624;82;21044;-61
2022/04/28 07:49:30;;;;;;;3.15;1.05;;;;;;;10.44;46.29;100748.29;1703189;82;21126;-62
2022/04/28 07:51:56;;;;;;;1.98;1.00;;;;;;;10.48;46.24;100740.78;1719499;82;21028;-62
2022/04/28 07:54:23;;;;;;;3.17;1.03;;;;;;;10.35;44.09;100748.58;1713145;82;21038;-62
2022/04/28 07:56:50;;;;;;;7.28;1.50;;;;;;;10.15;44.90;100754.81;1680313;83;22282;-62
2022/04/28 08:00:34;;;;;;;4.20;1.80;;;;;;;10.39;45.75;100750.64;1832009;75;27840;-63
2022/04/28 08:03:01;;;;;;;4.00;1.37;;;;;;;10.52;45.77;100751.98;1803064;77;21091;-63
2022/04/28 08:05:28;;;;;;;5.22;1.75;;;;;;;10.62;44.82;100753.88;1810734;77;21392;-63
2022/04/28 08:07:54;;;;;;;3.77;1.70;;;;;;;10.63;44.68;100751.66;1811339;77;21065;-63
2022/04/28 08:10:21;;;;;;;1.77;1.13;;;;;;;10.18;41.75;100761.24;1803541;78;21039;-62
2022/04/28 08:12:48;;;;;;;2.17;1.43;;;;;;;10.23;44.47;100752.83;1802932;77;21001;-63
2022/04/28 08:15:14;;;;;;;2.60;1.37;;;;;;;10.58;45.17;100754.86;1811464;78;21026;-63
2022/04/28 08:17:41;;;;;;;4.37;1.57;;;;;;;10.89;44.96;100760.81;1805277;78;21061;-63
2022/04/28 08:20:09;;;;;;;1.92;1.32;;;;;;;11.00;44.95;100750.02;1814962;77;20942;-68
2022/04/28 08:22:36;;;;;;;2.83;1.30;;;;;;;11.18;45.26;100744.66;1803989;77;20992;-63
2022/04/28 08:25:03;;;;;;;2.17;1.35;;;;;;;11.22;44.31;100748.87;1766369;79;21046;-62
2022/04/28 08:27:30;;;;;;;4.03;1.55;;;;;;;11.13;44.81;100746.56;1760343;79;27491;-64
2022/04/28 08:29:57;;;;;;;3.10;1.20;;;;;;;11.38;45.07;100747.45;1772711;79;22328;-63
2022/04/28 08:32:24;;;;;;;1.27;1.10;;;;;;;11.41;43.85;100747.34;1762636;79;28704;-63
2022/04/28 08:34:51;;;;;;;2.33;1.47;;;;;;;11.28;43.72;100742.12;1745703;79;21006;-63
2022/04/28 08:37:18;;;;;;;4.10;1.40;;;;;;;11.11;42.87;100740.53;1773886;79;21548;-63
2022/04/28 08:39:45;;;;;;;1.98;1.20;;;;;;;11.13;44.06;100741.34;1765124;79;21010;-63
2022/04/28 08:42:15;;;;;;;3.80;1.52;;;;;;;11.27;44.14;100736.50;1764530;79;21071;-62
2022/04/28 08:44:45;;;;;;;3.02;1.30;;;;;;;11.35;44.10;100742.33;1761113;80;21646;-63
2022/04/28 08:47:13;;;;;;;1.00;0.80;;;;;;;11.26;42.50;100750.49;1763093;79;21018;-62
2022/04/28 08:49:44;;;;;;;2.17;1.00;;;;;;;11.16;43.13;100738.63;1759663;80;21039;-62
2022/04/28 08:52:12;;;;;;;5.42;0.95;;;;;;;11.30;41.71;100749.47;1740281;80;20958;-62
2022/04/28 08:54:40;;;;;;;2.70;1.07;;;;;;;11.30;41.92;100754.70;1743651;81;21084;-61
2022/04/28 08:57:07;;;;;;;2.95;1.02;;;;;;;11.23;42.94;100738.83;1753071;80;20993;-63
2022/04/28 08:59:34;;;;;;;2.45;1.07;;;;;;;11.42;41.68;100739.88;1754090;80;20948;-61
2022/04/28 09:02:01;;;;;;;1.98;1.00;;;;;;;11.53;42.51;100735.59;1755214;80;20947;-62
2022/04/28 09:04:29;;;;;;;3.62;1.22;;;;;;;11.64;43.04;100740.45;1750467;80;20972;-63
2022/04/28 09:06:58;;;;;;;3.90;1.20;;;;;;;11.59;41.56;100741.91;1744407;81;21847;-62
2022/04/28 09:09:27;;;;;;;1.62;0.95;;;;;;;11.22;40.98;100746.25;1746516;80;21032;-63
2022/04/28 09:12:00;;;;;;;1.62;0.80;;;;;;;11.11;42.46;100743.14;1754727;80;21040;-63
2022/04/28 09:14:27;;;;;;;1.17;0.80;;;;;;;11.34;42.27;100751.09;1725996;81;21096;-62
2022/04/28 09:17:03;;;;;;;8.93;1.17;;;;;;;11.27;42.29;100740.42;1755147;81;21033;-60
2022/04/28 09:19:39;;;;;;;2.15;0.90;;;;;;;11.65;42.98;100739.56;1725026;82;21119;-61
2022/04/28 09:22:13;;;;;;;2.08;0.62;;;;;;;11.85;42.67;100742.34;1750303;80;21013;-62
2022/04/28 09:24:46;;;;;;;1.30;0.75;;;;;;;11.81;41.51;100740.70;1719951;82;21056;-61
2022/04/28 09:27:14;;;;;;;3.00;0.90;;;;;;;11.43;39.67;100742.92;1726136;81;21020;-63
2022/04/28 09:29:44;;;;;;;1.45;0.60;;;;;;;11.36;41.88;100741.87;1749424;81;21060;-64
2022/04/28 09:32:15;;;;;;;3.27;0.80;;;;;;;11.65;42.03;100737.80;1727087;81;21083;-62
2022/04/28 09:34:53;;;;;;;3.08;0.80;;;;;;;11.56;41.86;100738.09;1724549;81;21098;-62
2022/04/28 09:37:26;;;;;;;4.03;1.10;;;;;;;11.93;42.76;100741.19;1749693;80;21095;-61
2022/04/28 09:42:42;;;;;;;3.65;1.07;;;;;;;12.60;42.41;100739.94;1739474;80;21557;-63
2022/04/28 09:45:29;;;;;;;3.67;0.80;;;;;;;12.63;40.77;100738.53;1752274;81;21014;-63
2022/04/28 09:48:05;;;;;;;1.90;1.00;;;;;;;12.46;40.88;100731.34;1680247;83;21833;-65
2022/04/28 09:50:53;;;;;;;4.33;0.90;;;;;;;12.30;41.87;100727.14;1682259;83;21069;-64
2022/04/28 09:53:22;;;;;;;10.98;1.42;;;;;;;12.52;42.01;100726.31;1768390;79;21487;-60
2022/04/28 09:55:51;;;;;;;4.62;0.88;;;;;;;12.44;40.24;100734.92;1778481;79;21047;-60
2022/04/28 09:58:21;;;;;;;2.27;0.60;;;;;;;12.10;40.17;100723.12;1781398;79;21063;-60
2022/04/28 10:01:00;;;;;;;5.95;1.40;;;;;;;11.87;40.36;100730.49;1777435;79;20933;-63
2022/04/28 10:03:25;;;;;;;2.42;1.20;;;;;;;11.68;40.26;100735.95;1778928;79;21008;-63
2022/04/28 10:05:52;;;;;;;;;;;;;;;11.60;40.34;100731.02;1776884;79;20957;-63
2022/04/28 10:08:24;;;;;;;0.95;0.70;;;;;;;11.74;41.40;100727.45;1771893;79;20109;-62
2022/04/28 10:10:58;;;;;;;1.22;0.80;;;;;;;12.15;41.63;100732.94;1784730;78;21105;-63
2022/04/28 10:13:28;;;;;;;2.25;0.90;;;;;;;11.93;38.54;100730.72;1782322;79;21035;-64
2022/04/28 10:15:59;;;;;;;1.52;0.60;;;;;;;11.73;40.05;100729.65;1777608;79;20953;-63
2022/04/28 10:18:44;;;;;;;1.65;0.78;;;;;;;11.61;38.68;100731.41;1756256;80;21692;-63
2022/04/28 10:21:15;;;;;;;2.33;0.70;;;;;;;11.53;39.64;100726.90;1775294;79;21006;-64
2022/04/28 10:32:56;;;;;;;1.87;0.80;;;;;;;12.15;39.37;100733.41;1791039;78;21680;-61
2022/04/28 10:35:56;;;;;;;1.20;0.82;;;;;;;12.07;40.23;100733.68;1766295;78;20960;-63
2022/04/28 10:38:34;;;;;;;2.90;0.80;;;;;;;12.22;40.33;100735.73;1702939;82;21274;-61
2022/04/28 10:41:10;;;;;;;4.85;0.98;;;;;;;12.34;40.67;100729.64;1701142;82;21112;-62
2022/04/28 10:43:40;;;;;;;1.70;0.85;;;;;;;12.58;39.74;100745.72;1699221;82;21620;-62
2022/04/28 10:46:19;;;;;;;1.77;0.93;;;;;;;12.23;39.23;100741.36;1701197;83;21555;-61
2022/04/28 10:49:05;;;;;;;4.05;0.80;;;;;;;11.98;39.08;100741.87;1718057;82;20998;-62
2022/04/28 10:51:34;;;;;;;2.50;0.85;;;;;;;12.17;40.01;100732.44;1722983;81;21112;-63
2022/04/28 10:54:19;;;;;;;6.45;0.85;;;;;;;12.36;37.88;100735.67;1720767;81;21586;-60
2022/04/28 10:56:58;;;;;;;1.50;0.90;;;;;;;12.16;38.82;100727.27;1716363;82;21106;-61
2022/04/28 10:59:32;;;;;;;1.90;1.00;;;;;;;12.06;39.41;100726.75;1721194;82;21073;-62
2022/04/28 11:02:27;;;;;;;3.65;1.10;;;;;;;12.31;39.98;100731.45;1680706;83;21693;-61
2022/04/28 11:05:03;;;;;;;2.37;0.82;;;;;;;12.36;39.56;100731.75;1688923;83;21182;-61
2022/04/28 11:07:32;;;;;;;0.82;0.80;;;;;;;12.26;39.53;100725.53;1687131;83;21650;-61
2022/04/28 11:10:05;;;;;;;1.67;0.65;;;;;;;12.44;39.97;100722.67;1716295;82;21071;-61
2022/04/28 11:12:42;;;;;;;5.92;0.90;;;;;;;12.65;39.84;100725.36;1728902;82;21076;-61
2022/04/28 11:15:14;;;;;;;2.45;0.78;;;;;;;12.44;38.83;100715.28;1728119;82;20990;-62
2022/04/28 11:17:47;;;;;;;5.83;0.90;;;;;;;12.36;38.42;100738.30;1728006;81;21065;-61
2022/04/28 11:20:20;;;;;;;2.55;1.10;;;;;;;12.43;39.50;100726.65;1721999;82;21021;-61
2022/04/28 11:22:55;;;;;;;2.40;0.82;;;;;;;12.47;39.55;100724.33;1723491;82;20986;-61
2022/04/28 11:25:21;;;;;;;2.77;0.85;;;;;;;12.60;40.17;100720.28;1715434;82;21045;-61
2022/04/28 11:27:50;;;;;;;1.80;1.10;;;;;;;12.86;40.00;100724.50;1728973;82;21587;-61
2022/04/28 11:30:20;;;;;;;10.65;2.02;;;;;;;12.86;39.25;100726.27;1725249;82;22112;-61
2022/04/28 11:32:57;;;;;;;1.75;0.80;;;;;;;12.79;39.41;100732.66;1729647;82;20951;-61
2022/04/28 11:35:39;;;;;;;3.00;0.90;;;;;;;12.67;39.07;100727.00;1720420;81;21539;-61
2022/04/28 11:38:02;;;;;;;3.65;0.98;;;;;;;12.62;39.17;100721.55;1717032;82;20915;-61
2022/04/28 11:40:35;;;;;;;3.47;1.17;;;;;;;12.43;38.29;100734.05;1717946;82;21033;-61
2022/04/28 11:43:09;;;;;;;2.40;1.00;;;;;;;12.19;38.14;100728.00;1727225;81;21528;-61
2022/04/28 11:45:37;;;;;;;5.37;1.30;;;;;;;12.23;39.40;100732.20;1729451;82;20993;-61
2022/04/28 11:48:05;;;;;;;5.00;0.98;;;;;;;12.21;38.92;100727.50;1733490;81;21034;-61
2022/04/28 11:50:37;;;;;;;2.55;1.02;;;;;;;12.23;39.24;100734.81;1735029;81;21002;-60
2022/04/28 11:54:28;;;;;;;4.20;0.95;;;;;;;12.26;38.87;100735.16;1815173;77;24286;-61
2022/04/28 11:57:12;;;;;;;2.80;1.05;;;;;;;12.29;39.38;100731.98;1819459;78;20987;-62
2022/04/28 11:59:41;;;;;;;1.80;1.05;;;;;;;12.48;39.50;100729.95;1819603;78;21177;-63
2022/04/28 12:02:35;;;;;;;5.47;1.20;;;;;;;12.63;39.56;100722.81;1825700;78;21052;-61
2022/04/28 12:05:10;;;;;;;2.05;0.70;;;;;;;12.65;39.14;100723.58;1826084;78;20985;-61
2022/04/28 12:07:36;;;;;;;3.33;1.10;;;;;;;12.68;39.51;100728.70;1818140;77;20961;-61
2022/04/28 12:15:38;;;;;;;2.17;1.22;;;;;;;12.60;37.53;100728.14;1823721;78;20973;-61